sensor_id;sensor_type;location;lat;lon;timestamp;P1;durP1;ratioP1;P2;durP2;ratioP2
44704;SDS011;30431;48.520;9.046;2023-03-23T00:02:28;12.15;;;5.97;;
44704;SDS011;30431;48.520;9.046;2023-03-23T00:05:06;5.95;;;3.90;;
44704;SDS011;30431;48.520;9.046;2023-03-23T00:07:34;8.88;;;4.30;;
44704;SDS011;30431;48.520;9.046;2023-03-23T00:10:01;7.18;;;4.35;;
44704;SDS011;30431;48.520;9.046;2023-03-23T00:12:28;7.43;;;3.92;;
44704;SDS011;30431;48.520;9.046;2023-03-23T00:15:08;6.18;;;3.75;;
44704;SDS011;30431;48.520;9.046;2023-03-23T00:17:38;5.30;;;3.30;;
44704;SDS011;30431;48.520;9.046;2023-03-23T00:20:05;8.07;;;3.40;;
44704;SDS011;30431;48.520;9.046;2023-03-23T00:22:32;5.20;;;3.40;;
44704;SDS011;30431;48.520;9.046;2023-03-23T00:25:03;5.38;;;3.40;;
44704;SDS011;30431;48.520;9.046;2023-03-23T00:27:30;6.32;;;3.50;;
44704;SDS011;30431;48.520;9.046;2023-03-23T00:29:57;9.50;;;3.72;;
44704;SDS011;30431;48.520;9.046;2023-03-23T00:32:24;5.80;;;3.97;;
44704;SDS011;30431;48.520;9.046;2023-03-23T00:34:56;7.20;;;4.00;;
44704;SDS011;30431;48.520;9.046;2023-03-23T00:37:28;7.07;;;4.00;;
44704;SDS011;30431;48.520;9.046;2023-03-23T00:39:54;4.70;;;3.33;;
44704;SDS011;30431;48.520;9.046;2023-03-23T00:42:22;6.30;;;3.60;;
44704;SDS011;30431;48.520;9.046;2023-03-23T00:44:52;6.50;;;3.65;;
44704;SDS011;30431;48.520;9.046;2023-03-23T00:47:40;9.40;;;3.80;;
44704;SDS011;30431;48.520;9.046;2023-03-23T00:50:12;6.55;;;3.70;;
44704;SDS011;30431;48.520;9.046;2023-03-23T00:52:44;7.85;;;4.03;;
44704;SDS011;30431;48.520;9.046;2023-03-23T00:55:16;6.05;;;3.75;;
44704;SDS011;30431;48.520;9.046;2023-03-23T00:57:44;8.90;;;3.75;;
44704;SDS011;30431;48.520;9.046;2023-03-23T01:00:16;6.63;;;3.90;;
44704;SDS011;30431;48.520;9.046;2023-03-23T01:02:44;9.50;;;3.80;;
44704;SDS011;30431;48.520;9.046;2023-03-23T01:05:11;8.33;;;3.17;;
44704;SDS011;30431;48.520;9.046;2023-03-23T01:07:40;5.47;;;3.05;;
44704;SDS011;30431;48.520;9.046;2023-03-23T01:10:10;4.68;;;2.88;;
44704;SDS011;30431;48.520;9.046;2023-03-23T01:12:44;7.07;;;3.28;;
44704;SDS011;30431;48.520;9.046;2023-03-23T01:15:15;5.15;;;3.22;;
44704;SDS011;30431;48.520;9.046;2023-03-23T01:17:42;9.15;;;3.45;;
44704;SDS011;30431;48.520;9.046;2023-03-23T01:20:10;5.03;;;2.95;;
44704;SDS011;30431;48.520;9.046;2023-03-23T01:22:38;8.02;;;2.95;;
44704;SDS011;30431;48.520;9.046;2023-03-23T01:25:07;4.25;;;2.60;;
44704;SDS011;30431;48.520;9.046;2023-03-23T01:27:35;5.78;;;2.60;;
44704;SDS011;30431;48.520;9.046;2023-03-23T01:30:01;7.20;;;3.40;;
44704;SDS011;30431;48.520;9.046;2023-03-23T01:32:29;6.00;;;3.75;;
44704;SDS011;30431;48.520;9.046;2023-03-23T01:34:55;8.90;;;3.60;;
44704;SDS011;30431;48.520;9.046;2023-03-23T01:37:22;6.13;;;3.63;;
44704;SDS011;30431;48.520;9.046;2023-03-23T01:39:53;9.13;;;4.05;;
44704;SDS011;30431;48.520;9.046;2023-03-23T01:42:23;7.57;;;3.47;;
44704;SDS011;30431;48.520;9.046;2023-03-23T01:47:19;5.65;;;3.72;;
44704;SDS011;30431;48.520;9.046;2023-03-23T01:49:50;8.00;;;3.55;;
44704;SDS011;30431;48.520;9.046;2023-03-23T01:52:21;6.37;;;3.40;;
44704;SDS011;30431;48.520;9.046;2023-03-23T01:54:55;6.60;;;3.83;;
44704;SDS011;30431;48.520;9.046;2023-03-23T01:57:23;5.28;;;3.20;;
44704;SDS011;30431;48.520;9.046;2023-03-23T01:59:57;4.50;;;2.72;;
44704;SDS011;30431;48.520;9.046;2023-03-23T02:02:39;6.40;;;3.03;;
44704;SDS011;30431;48.520;9.046;2023-03-23T02:05:24;5.97;;;2.50;;
44704;SDS011;30431;48.520;9.046;2023-03-23T02:08:02;8.55;;;2.72;;
44704;SDS011;30431;48.520;9.046;2023-03-23T02:10:37;4.65;;;2.60;;
44704;SDS011;30431;48.520;9.046;2023-03-23T02:13:03;4.82;;;2.70;;
44704;SDS011;30431;48.520;9.046;2023-03-23T02:34:27;4.82;;;2.80;;
44704;SDS011;30431;48.520;9.046;2023-03-23T02:37:08;7.18;;;2.97;;
44704;SDS011;30431;48.520;9.046;2023-03-23T02:39:41;4.80;;;3.00;;
44704;SDS011;30431;48.520;9.046;2023-03-23T02:42:23;8.95;;;3.25;;
44704;SDS011;30431;48.520;9.046;2023-03-23T02:44:53;5.28;;;3.17;;
44704;SDS011;30431;48.520;9.046;2023-03-23T02:47:23;6.90;;;3.00;;
44704;SDS011;30431;48.520;9.046;2023-03-23T02:49:53;8.73;;;3.50;;
44704;SDS011;30431;48.520;9.046;2023-03-23T02:52:26;6.40;;;3.35;;
44704;SDS011;30431;48.520;9.046;2023-03-23T02:54:57;5.20;;;3.23;;
44704;SDS011;30431;48.520;9.046;2023-03-23T02:57:28;8.35;;;3.20;;
44704;SDS011;30431;48.520;9.046;2023-03-23T02:59:58;8.88;;;3.78;;
44704;SDS011;30431;48.520;9.046;2023-03-23T03:02:32;5.57;;;3.58;;
44704;SDS011;30431;48.520;9.046;2023-03-23T03:07:59;6.85;;;3.40;;
44704;SDS011;30431;48.520;9.046;2023-03-23T03:13:03;6.15;;;3.38;;
44704;SDS011;30431;48.520;9.046;2023-03-23T03:18:52;5.88;;;3.50;;
44704;SDS011;30431;48.520;9.046;2023-03-23T03:21:39;5.10;;;2.80;;
44704;SDS011;30431;48.520;9.046;2023-03-23T03:24:13;4.72;;;2.80;;
44704;SDS011;30431;48.520;9.046;2023-03-23T03:26:46;6.53;;;2.92;;
44704;SDS011;30431;48.520;9.046;2023-03-23T03:29:23;5.32;;;2.88;;
44704;SDS011;30431;48.520;9.046;2023-03-23T03:32:04;6.20;;;2.72;;
44704;SDS011;30431;48.520;9.046;2023-03-23T03:34:34;5.28;;;2.80;;
44704;SDS011;30431;48.520;9.046;2023-03-23T03:37:03;4.05;;;2.70;;
44704;SDS011;30431;48.520;9.046;2023-03-23T03:39:34;4.35;;;2.50;;
44704;SDS011;30431;48.520;9.046;2023-03-23T03:42:05;5.55;;;3.05;;
44704;SDS011;30431;48.520;9.046;2023-03-23T03:44:32;6.47;;;3.17;;
44704;SDS011;30431;48.520;9.046;2023-03-23T03:46:58;6.03;;;3.75;;
44704;SDS011;30431;48.520;9.046;2023-03-23T03:49:27;4.45;;;3.20;;
44704;SDS011;30431;48.520;9.046;2023-03-23T03:51:53;5.68;;;3.13;;
44704;SDS011;30431;48.520;9.046;2023-03-23T03:54:24;5.65;;;3.22;;
44704;SDS011;30431;48.520;9.046;2023-03-23T03:56:51;6.95;;;3.20;;
44704;SDS011;30431;48.520;9.046;2023-03-23T03:59:38;4.50;;;3.05;;
44704;SDS011;30431;48.520;9.046;2023-03-23T04:02:19;6.47;;;3.10;;
44704;SDS011;30431;48.520;9.046;2023-03-23T04:04:48;4.57;;;2.97;;
44704;SDS011;30431;48.520;9.046;2023-03-23T04:07:15;4.85;;;2.90;;
44704;SDS011;30431;48.520;9.046;2023-03-23T04:09:43;6.72;;;3.05;;
44704;SDS011;30431;48.520;9.046;2023-03-23T04:12:13;7.90;;;3.00;;
44704;SDS011;30431;48.520;9.046;2023-03-23T04:14:54;4.32;;;2.92;;
44704;SDS011;30431;48.520;9.046;2023-03-23T04:17:28;5.72;;;3.28;;
44704;SDS011;30431;48.520;9.046;2023-03-23T04:19:54;4.45;;;2.90;;
44704;SDS011;30431;48.520;9.046;2023-03-23T04:22:25;6.30;;;3.20;;
44704;SDS011;30431;48.520;9.046;2023-03-23T04:24:58;8.80;;;3.28;;
44704;SDS011;30431;48.520;9.046;2023-03-23T04:27:30;5.05;;;3.17;;
44704;SDS011;30431;48.520;9.046;2023-03-23T04:29:59;6.22;;;3.53;;
44704;SDS011;30431;48.520;9.046;2023-03-23T04:32:59;5.45;;;3.20;;
44704;SDS011;30431;48.520;9.046;2023-03-23T04:35:28;6.93;;;3.42;;
44704;SDS011;30431;48.520;9.046;2023-03-23T04:38:16;4.90;;;3.00;;
44704;SDS011;30431;48.520;9.046;2023-03-23T04:40:51;4.97;;;3.03;;
44704;SDS011;30431;48.520;9.046;2023-03-23T04:43:35;5.20;;;3.03;;
44704;SDS011;30431;48.520;9.046;2023-03-23T04:46:35;4.55;;;3.22;;
44704;SDS011;30431;48.520;9.046;2023-03-23T04:49:07;6.95;;;3.05;;
44704;SDS011;30431;48.520;9.046;2023-03-23T04:51:36;6.63;;;3.47;;
44704;SDS011;30431;48.520;9.046;2023-03-23T04:54:25;5.72;;;3.03;;
44704;SDS011;30431;48.520;9.046;2023-03-23T04:56:57;4.80;;;2.83;;
44704;SDS011;30431;48.520;9.046;2023-03-23T04:59:24;5.28;;;3.28;;
44704;SDS011;30431;48.520;9.046;2023-03-23T05:02:18;9.35;;;4.47;;
44704;SDS011;30431;48.520;9.046;2023-03-23T05:04:47;11.15;;;6.05;;
44704;SDS011;30431;48.520;9.046;2023-03-23T05:07:19;12.10;;;5.57;;
44704;SDS011;30431;48.520;9.046;2023-03-23T05:09:50;9.48;;;5.30;;
44704;SDS011;30431;48.520;9.046;2023-03-23T05:15:36;10.20;;;5.18;;
44704;SDS011;30431;48.520;9.046;2023-03-23T05:18:04;9.23;;;5.82;;
44704;SDS011;30431;48.520;9.046;2023-03-23T05:20:31;11.25;;;7.20;;
44704;SDS011;30431;48.520;9.046;2023-03-23T05:23:05;9.50;;;5.95;;
44704;SDS011;30431;48.520;9.046;2023-03-23T05:25:34;9.98;;;4.35;;
44704;SDS011;30431;48.520;9.046;2023-03-23T05:28:07;7.13;;;3.63;;
44704;SDS011;30431;48.520;9.046;2023-03-23T05:30:55;7.32;;;4.43;;
44704;SDS011;30431;48.520;9.046;2023-03-23T05:33:26;9.10;;;4.80;;
44704;SDS011;30431;48.520;9.046;2023-03-23T05:36:12;8.27;;;4.30;;
44704;SDS011;30431;48.520;9.046;2023-03-23T05:38:57;8.63;;;3.60;;
44704;SDS011;30431;48.520;9.046;2023-03-23T05:41:35;7.38;;;3.42;;
44704;SDS011;30431;48.520;9.046;2023-03-23T05:44:01;5.45;;;3.30;;
44704;SDS011;30431;48.520;9.046;2023-03-23T05:46:40;15.32;;;5.72;;
44704;SDS011;30431;48.520;9.046;2023-03-23T05:49:06;7.47;;;3.38;;
44704;SDS011;30431;48.520;9.046;2023-03-23T05:51:37;7.00;;;2.75;;
44704;SDS011;30431;48.520;9.046;2023-03-23T05:54:06;8.45;;;3.55;;
44704;SDS011;30431;48.520;9.046;2023-03-23T05:56:33;5.70;;;3.60;;
44704;SDS011;30431;48.520;9.046;2023-03-23T05:59:17;8.68;;;3.53;;
44704;SDS011;30431;48.520;9.046;2023-03-23T06:01:47;7.03;;;3.30;;
44704;SDS011;30431;48.520;9.046;2023-03-23T06:04:12;10.70;;;2.92;;
44704;SDS011;30431;48.520;9.046;2023-03-23T06:06:46;7.30;;;3.30;;
44704;SDS011;30431;48.520;9.046;2023-03-23T06:09:13;5.90;;;2.95;;
44704;SDS011;30431;48.520;9.046;2023-03-23T06:12:00;5.95;;;3.05;;
44704;SDS011;30431;48.520;9.046;2023-03-23T06:14:42;7.18;;;5.22;;
44704;SDS011;30431;48.520;9.046;2023-03-23T06:17:09;8.93;;;5.25;;
44704;SDS011;30431;48.520;9.046;2023-03-23T06:19:35;8.97;;;4.17;;
44704;SDS011;30431;48.520;9.046;2023-03-23T06:22:09;6.47;;;3.78;;
44704;SDS011;30431;48.520;9.046;2023-03-23T06:25:14;8.75;;;3.80;;
44704;SDS011;30431;48.520;9.046;2023-03-23T06:27:44;5.05;;;3.15;;
44704;SDS011;30431;48.520;9.046;2023-03-23T06:30:16;5.72;;;3.70;;
44704;SDS011;30431;48.520;9.046;2023-03-23T06:32:42;8.60;;;3.35;;
44704;SDS011;30431;48.520;9.046;2023-03-23T06:35:16;10.27;;;5.22;;
44704;SDS011;30431;48.520;9.046;2023-03-23T06:38:14;8.93;;;4.70;;
44704;SDS011;30431;48.520;9.046;2023-03-23T06:40:54;7.78;;;3.78;;
44704;SDS011;30431;48.520;9.046;2023-03-23T06:43:27;8.90;;;3.65;;
44704;SDS011;30431;48.520;9.046;2023-03-23T06:45:58;9.18;;;3.35;;
44704;SDS011;30431;48.520;9.046;2023-03-23T06:48:37;7.85;;;3.20;;
44704;SDS011;30431;48.520;9.046;2023-03-23T06:51:04;6.72;;;3.30;;
44704;SDS011;30431;48.520;9.046;2023-03-23T06:53:32;5.20;;;3.13;;
44704;SDS011;30431;48.520;9.046;2023-03-23T06:56:05;13.68;;;5.13;;
44704;SDS011;30431;48.520;9.046;2023-03-23T06:58:34;20.73;;;9.52;;
44704;SDS011;30431;48.520;9.046;2023-03-23T07:01:03;22.20;;;9.23;;
44704;SDS011;30431;48.520;9.046;2023-03-23T07:03:38;13.20;;;6.20;;
44704;SDS011;30431;48.520;9.046;2023-03-23T07:06:08;11.32;;;5.15;;
44704;SDS011;30431;48.520;9.046;2023-03-23T07:08:46;7.65;;;4.13;;
44704;SDS011;30431;48.520;9.046;2023-03-23T07:11:17;10.40;;;3.88;;
44704;SDS011;30431;48.520;9.046;2023-03-23T07:13:46;8.07;;;3.70;;
44704;SDS011;30431;48.520;9.046;2023-03-23T07:16:13;9.25;;;3.53;;
44704;SDS011;30431;48.520;9.046;2023-03-23T07:18:39;6.40;;;3.25;;
44704;SDS011;30431;48.520;9.046;2023-03-23T07:21:09;4.95;;;2.83;;
44704;SDS011;30431;48.520;9.046;2023-03-23T07:23:35;8.68;;;3.15;;
44704;SDS011;30431;48.520;9.046;2023-03-23T07:26:04;4.80;;;2.63;;
44704;SDS011;30431;48.520;9.046;2023-03-23T07:28:46;6.50;;;2.60;;
44704;SDS011;30431;48.520;9.046;2023-03-23T07:31:40;5.65;;;2.97;;
44704;SDS011;30431;48.520;9.046;2023-03-23T07:34:06;5.43;;;2.88;;
44704;SDS011;30431;48.520;9.046;2023-03-23T07:36:46;6.07;;;3.40;;
44704;SDS011;30431;48.520;9.046;2023-03-23T07:39:13;8.02;;;3.15;;
44704;SDS011;30431;48.520;9.046;2023-03-23T07:41:40;5.85;;;3.13;;
44704;SDS011;30431;48.520;9.046;2023-03-23T07:44:17;8.60;;;3.70;;
44704;SDS011;30431;48.520;9.046;2023-03-23T07:46:43;4.72;;;3.00;;
44704;SDS011;30431;48.520;9.046;2023-03-23T07:49:12;9.45;;;3.60;;
44704;SDS011;30431;48.520;9.046;2023-03-23T07:51:47;7.05;;;2.90;;
44704;SDS011;30431;48.520;9.046;2023-03-23T07:54:15;5.50;;;2.70;;
44704;SDS011;30431;48.520;9.046;2023-03-23T07:57:14;5.15;;;2.33;;
44704;SDS011;30431;48.520;9.046;2023-03-23T07:59:46;7.30;;;2.10;;
44704;SDS011;30431;48.520;9.046;2023-03-23T08:02:12;3.88;;;2.20;;
44704;SDS011;30431;48.520;9.046;2023-03-23T08:04:41;2.80;;;2.17;;
44704;SDS011;30431;48.520;9.046;2023-03-23T08:07:26;5.30;;;2.00;;
44704;SDS011;30431;48.520;9.046;2023-03-23T08:10:01;4.47;;;2.40;;
44704;SDS011;30431;48.520;9.046;2023-03-23T08:12:50;4.68;;;2.45;;
44704;SDS011;30431;48.520;9.046;2023-03-23T08:15:58;5.05;;;2.50;;
44704;SDS011;30431;48.520;9.046;2023-03-23T08:18:39;4.18;;;2.08;;
44704;SDS011;30431;48.520;9.046;2023-03-23T08:21:40;5.18;;;2.33;;
44704;SDS011;30431;48.520;9.046;2023-03-23T08:24:15;4.60;;;2.20;;
44704;SDS011;30431;48.520;9.046;2023-03-23T08:27:09;5.20;;;1.98;;
44704;SDS011;30431;48.520;9.046;2023-03-23T08:29:47;3.35;;;2.15;;
44704;SDS011;30431;48.520;9.046;2023-03-23T08:32:51;7.57;;;2.25;;
44704;SDS011;30431;48.520;9.046;2023-03-23T08:35:34;4.50;;;2.30;;
44704;SDS011;30431;48.520;9.046;2023-03-23T08:38:25;4.00;;;2.08;;
44704;SDS011;30431;48.520;9.046;2023-03-23T08:41:11;8.32;;;2.70;;
44704;SDS011;30431;48.520;9.046;2023-03-23T08:43:49;5.00;;;2.33;;
44704;SDS011;30431;48.520;9.046;2023-03-23T08:46:48;4.82;;;2.20;;
44704;SDS011;30431;48.520;9.046;2023-03-23T08:49:33;6.30;;;2.72;;
44704;SDS011;30431;48.520;9.046;2023-03-23T08:52:12;4.65;;;2.50;;
44704;SDS011;30431;48.520;9.046;2023-03-23T08:54:52;4.68;;;2.60;;
44704;SDS011;30431;48.520;9.046;2023-03-23T08:57:21;4.32;;;2.15;;
44704;SDS011;30431;48.520;9.046;2023-03-23T09:00:10;4.85;;;2.30;;
44704;SDS011;30431;48.520;9.046;2023-03-23T09:03:13;4.55;;;2.28;;
44704;SDS011;30431;48.520;9.046;2023-03-23T09:06:13;4.53;;;2.10;;
44704;SDS011;30431;48.520;9.046;2023-03-23T09:08:46;5.75;;;2.70;;
44704;SDS011;30431;48.520;9.046;2023-03-23T09:11:12;5.13;;;2.28;;
44704;SDS011;30431;48.520;9.046;2023-03-23T09:13:38;6.97;;;2.40;;
44704;SDS011;30431;48.520;9.046;2023-03-23T09:16:05;6.95;;;2.42;;
44704;SDS011;30431;48.520;9.046;2023-03-23T09:18:34;3.70;;;2.47;;
44704;SDS011;30431;48.520;9.046;2023-03-23T09:21:01;5.32;;;2.28;;
44704;SDS011;30431;48.520;9.046;2023-03-23T09:23:30;5.90;;;2.38;;
44704;SDS011;30431;48.520;9.046;2023-03-23T09:25:56;2.83;;;1.90;;
44704;SDS011;30431;48.520;9.046;2023-03-23T09:28:22;3.80;;;2.22;;
44704;SDS011;30431;48.520;9.046;2023-03-23T09:30:48;6.15;;;2.47;;
44704;SDS011;30431;48.520;9.046;2023-03-23T09:33:14;4.63;;;2.28;;
44704;SDS011;30431;48.520;9.046;2023-03-23T09:35:43;4.97;;;2.30;;
44704;SDS011;30431;48.520;9.046;2023-03-23T09:38:09;4.50;;;2.38;;
44704;SDS011;30431;48.520;9.046;2023-03-23T09:49:15;7.25;;;3.58;;
44704;SDS011;30431;48.520;9.046;2023-03-23T09:51:57;6.53;;;3.05;;
44704;SDS011;30431;48.520;9.046;2023-03-23T09:54:30;6.32;;;2.38;;
44704;SDS011;30431;48.520;9.046;2023-03-23T09:57:03;4.57;;;2.30;;
44704;SDS011;30431;48.520;9.046;2023-03-23T09:59:39;2.92;;;2.10;;
44704;SDS011;30431;48.520;9.046;2023-03-23T10:02:14;5.63;;;2.20;;
44704;SDS011;30431;48.520;9.046;2023-03-23T10:04:46;2.13;;;1.80;;
44704;SDS011;30431;48.520;9.046;2023-03-23T10:07:15;3.97;;;2.03;;
44704;SDS011;30431;48.520;9.046;2023-03-23T10:09:49;3.13;;;2.08;;
44704;SDS011;30431;48.520;9.046;2023-03-23T10:17:58;4.18;;;2.35;;
44704;SDS011;30431;48.520;9.046;2023-03-23T10:26:06;3.80;;;2.10;;
44704;SDS011;30431;48.520;9.046;2023-03-23T10:28:38;3.22;;;2.15;;
44704;SDS011;30431;48.520;9.046;2023-03-23T10:31:10;5.30;;;2.20;;
44704;SDS011;30431;48.520;9.046;2023-03-23T10:33:44;4.50;;;2.13;;
44704;SDS011;30431;48.520;9.046;2023-03-23T10:36:18;3.42;;;2.10;;
44704;SDS011;30431;48.520;9.046;2023-03-23T10:41:33;5.43;;;2.90;;
44704;SDS011;30431;48.520;9.046;2023-03-23T10:43:59;6.03;;;2.60;;
44704;SDS011;30431;48.520;9.046;2023-03-23T10:48:58;3.50;;;1.88;;
44704;SDS011;30431;48.520;9.046;2023-03-23T10:51:36;4.47;;;2.50;;
44704;SDS011;30431;48.520;9.046;2023-03-23T10:54:05;4.55;;;2.30;;
44704;SDS011;30431;48.520;9.046;2023-03-23T10:56:39;3.30;;;2.00;;
44704;SDS011;30431;48.520;9.046;2023-03-23T11:01:42;3.20;;;2.08;;
44704;SDS011;30431;48.520;9.046;2023-03-23T11:04:16;3.65;;;2.22;;
44704;SDS011;30431;48.520;9.046;2023-03-23T11:06:54;3.25;;;2.00;;
44704;SDS011;30431;48.520;9.046;2023-03-23T11:09:40;2.83;;;2.00;;
44704;SDS011;30431;48.520;9.046;2023-03-23T11:12:19;3.17;;;2.03;;
44704;SDS011;30431;48.520;9.046;2023-03-23T11:17:24;2.10;;;1.75;;
44704;SDS011;30431;48.520;9.046;2023-03-23T11:19:52;3.83;;;2.25;;
44704;SDS011;30431;48.520;9.046;2023-03-23T11:22:28;3.10;;;2.28;;
44704;SDS011;30431;48.520;9.046;2023-03-23T11:25:01;4.15;;;2.05;;
44704;SDS011;30431;48.520;9.046;2023-03-23T11:27:30;4.82;;;2.25;;
44704;SDS011;30431;48.520;9.046;2023-03-23T11:29:58;3.22;;;2.17;;
44704;SDS011;30431;48.520;9.046;2023-03-23T11:32:34;5.50;;;2.20;;
44704;SDS011;30431;48.520;9.046;2023-03-23T11:35:04;6.18;;;1.98;;
44704;SDS011;30431;48.520;9.046;2023-03-23T11:37:41;3.85;;;2.35;;
44704;SDS011;30431;48.520;9.046;2023-03-23T11:50:26;2.83;;;1.77;;
44704;SDS011;30431;48.520;9.046;2023-03-23T11:53:20;3.45;;;2.10;;
44704;SDS011;30431;48.520;9.046;2023-03-23T11:58:36;6.72;;;2.17;;
44704;SDS011;30431;48.520;9.046;2023-03-23T12:01:12;5.88;;;2.83;;
44704;SDS011;30431;48.520;9.046;2023-03-23T12:09:37;2.88;;;2.00;;
44704;SDS011;30431;48.520;9.046;2023-03-23T12:22:50;3.63;;;2.20;;
44704;SDS011;30431;48.520;9.046;2023-03-23T12:31:42;9.40;;;2.45;;
44704;SDS011;30431;48.520;9.046;2023-03-23T12:39:37;3.58;;;2.15;;
44704;SDS011;30431;48.520;9.046;2023-03-23T12:53:15;3.25;;;2.08;;
44704;SDS011;30431;48.520;9.046;2023-03-23T12:55:45;2.63;;;1.90;;
44704;SDS011;30431;48.520;9.046;2023-03-23T13:00:56;2.40;;;1.95;;
44704;SDS011;30431;48.520;9.046;2023-03-23T13:08:38;4.95;;;2.70;;
44704;SDS011;30431;48.520;9.046;2023-03-23T13:11:15;4.38;;;2.20;;
44704;SDS011;30431;48.520;9.046;2023-03-23T13:13:48;4.20;;;2.95;;
44704;SDS011;30431;48.520;9.046;2023-03-23T13:21:45;2.03;;;1.83;;
44704;SDS011;30431;48.520;9.046;2023-03-23T13:24:54;4.40;;;2.20;;
44704;SDS011;30431;48.520;9.046;2023-03-23T13:27:24;3.35;;;2.00;;
44704;SDS011;30431;48.520;9.046;2023-03-23T13:29:56;3.63;;;2.08;;
44704;SDS011;30431;48.520;9.046;2023-03-23T13:32:35;5.55;;;2.10;;
44704;SDS011;30431;48.520;9.046;2023-03-23T13:35:11;3.30;;;2.30;;
44704;SDS011;30431;48.520;9.046;2023-03-23T13:37:41;5.13;;;2.03;;
44704;SDS011;30431;48.520;9.046;2023-03-23T13:40:18;4.95;;;2.17;;
44704;SDS011;30431;48.520;9.046;2023-03-23T13:42:55;3.35;;;2.30;;
44704;SDS011;30431;48.520;9.046;2023-03-23T13:48:03;3.58;;;2.20;;
44704;SDS011;30431;48.520;9.046;2023-03-23T13:50:30;3.92;;;2.60;;
44704;SDS011;30431;48.520;9.046;2023-03-23T13:53:15;4.85;;;2.95;;
44704;SDS011;30431;48.520;9.046;2023-03-23T13:59:06;3.97;;;2.40;;
44704;SDS011;30431;48.520;9.046;2023-03-23T14:01:53;4.22;;;2.47;;
44704;SDS011;30431;48.520;9.046;2023-03-23T14:04:21;5.82;;;2.70;;
44704;SDS011;30431;48.520;9.046;2023-03-23T14:06:56;7.15;;;4.30;;
44704;SDS011;30431;48.520;9.046;2023-03-23T14:09:38;6.13;;;3.28;;
44704;SDS011;30431;48.520;9.046;2023-03-23T14:12:17;8.43;;;4.20;;
44704;SDS011;30431;48.520;9.046;2023-03-23T14:14:55;5.03;;;2.90;;
44704;SDS011;30431;48.520;9.046;2023-03-23T14:17:31;4.22;;;2.40;;
44704;SDS011;30431;48.520;9.046;2023-03-23T14:20:00;3.67;;;2.40;;
44704;SDS011;30431;48.520;9.046;2023-03-23T14:22:39;6.55;;;2.83;;
44704;SDS011;30431;48.520;9.046;2023-03-23T14:25:13;3.40;;;2.40;;
44704;SDS011;30431;48.520;9.046;2023-03-23T14:27:40;3.50;;;2.25;;
44704;SDS011;30431;48.520;9.046;2023-03-23T14:30:18;6.78;;;2.92;;
44704;SDS011;30431;48.520;9.046;2023-03-23T14:32:50;6.43;;;2.63;;
44704;SDS011;30431;48.520;9.046;2023-03-23T14:35:34;6.30;;;2.58;;
44704;SDS011;30431;48.520;9.046;2023-03-23T14:38:04;6.00;;;2.88;;
44704;SDS011;30431;48.520;9.046;2023-03-23T14:40:37;4.25;;;2.85;;
44704;SDS011;30431;48.520;9.046;2023-03-23T14:43:06;3.58;;;2.65;;
44704;SDS011;30431;48.520;9.046;2023-03-23T14:45:33;5.18;;;3.30;;
44704;SDS011;30431;48.520;9.046;2023-03-23T14:48:02;5.65;;;2.63;;
44704;SDS011;30431;48.520;9.046;2023-03-23T14:53:36;3.40;;;2.70;;
44704;SDS011;30431;48.520;9.046;2023-03-23T14:56:15;5.88;;;2.60;;
44704;SDS011;30431;48.520;9.046;2023-03-23T14:58:45;6.57;;;2.83;;
44704;SDS011;30431;48.520;9.046;2023-03-23T15:01:26;4.93;;;2.70;;
44704;SDS011;30431;48.520;9.046;2023-03-23T15:03:58;4.70;;;2.75;;
44704;SDS011;30431;48.520;9.046;2023-03-23T15:06:38;9.57;;;4.25;;
44704;SDS011;30431;48.520;9.046;2023-03-23T15:09:13;7.85;;;3.45;;
44704;SDS011;30431;48.520;9.046;2023-03-23T15:11:49;9.48;;;4.15;;
44704;SDS011;30431;48.520;9.046;2023-03-23T15:14:20;5.30;;;3.10;;
44704;SDS011;30431;48.520;9.046;2023-03-23T15:16:51;5.35;;;2.80;;
44704;SDS011;30431;48.520;9.046;2023-03-23T15:19:21;4.70;;;2.53;;
44704;SDS011;30431;48.520;9.046;2023-03-23T15:21:55;8.38;;;3.90;;
44704;SDS011;30431;48.520;9.046;2023-03-23T15:24:32;7.30;;;3.17;;
44704;SDS011;30431;48.520;9.046;2023-03-23T15:29:53;6.13;;;2.95;;
44704;SDS011;30431;48.520;9.046;2023-03-23T15:32:27;3.72;;;2.47;;
44704;SDS011;30431;48.520;9.046;2023-03-23T15:35:10;4.88;;;2.42;;
44704;SDS011;30431;48.520;9.046;2023-03-23T15:37:41;3.30;;;2.30;;
44704;SDS011;30431;48.520;9.046;2023-03-23T15:40:19;5.35;;;2.20;;
44704;SDS011;30431;48.520;9.046;2023-03-23T15:42:47;4.07;;;2.55;;
44704;SDS011;30431;48.520;9.046;2023-03-23T15:45:22;3.60;;;2.40;;
44704;SDS011;30431;48.520;9.046;2023-03-23T15:47:51;4.55;;;3.03;;
44704;SDS011;30431;48.520;9.046;2023-03-23T15:50:32;3.20;;;2.37;;
44704;SDS011;30431;48.520;9.046;2023-03-23T15:53:00;4.28;;;2.47;;
44704;SDS011;30431;48.520;9.046;2023-03-23T15:55:46;4.95;;;2.80;;
44704;SDS011;30431;48.520;9.046;2023-03-23T15:58:14;3.67;;;2.40;;
44704;SDS011;30431;48.520;9.046;2023-03-23T16:00:43;3.65;;;2.40;;
44704;SDS011;30431;48.520;9.046;2023-03-23T16:03:17;4.40;;;2.60;;
44704;SDS011;30431;48.520;9.046;2023-03-23T16:05:56;4.82;;;2.33;;
44704;SDS011;30431;48.520;9.046;2023-03-23T16:08:25;4.18;;;2.60;;
44704;SDS011;30431;48.520;9.046;2023-03-23T16:15:46;3.10;;;2.33;;
44704;SDS011;30431;48.520;9.046;2023-03-23T16:18:20;3.55;;;2.20;;
44704;SDS011;30431;48.520;9.046;2023-03-23T16:20:48;7.32;;;3.72;;
44704;SDS011;30431;48.520;9.046;2023-03-23T16:23:16;5.93;;;3.20;;
44704;SDS011;30431;48.520;9.046;2023-03-23T16:25:43;5.20;;;2.67;;
44704;SDS011;30431;48.520;9.046;2023-03-23T16:28:11;4.88;;;2.90;;
44704;SDS011;30431;48.520;9.046;2023-03-23T16:30:42;3.95;;;2.38;;
44704;SDS011;30431;48.520;9.046;2023-03-23T16:33:12;4.22;;;2.30;;
44704;SDS011;30431;48.520;9.046;2023-03-23T16:35:46;6.10;;;2.58;;
44704;SDS011;30431;48.520;9.046;2023-03-23T16:38:16;3.65;;;2.40;;
44704;SDS011;30431;48.520;9.046;2023-03-23T16:40:44;5.90;;;2.50;;
44704;SDS011;30431;48.520;9.046;2023-03-23T16:43:14;5.40;;;2.60;;
44704;SDS011;30431;48.520;9.046;2023-03-23T16:45:42;2.92;;;2.30;;
44704;SDS011;30431;48.520;9.046;2023-03-23T16:48:12;3.03;;;2.15;;
44704;SDS011;30431;48.520;9.046;2023-03-23T16:50:41;5.07;;;2.42;;
44704;SDS011;30431;48.520;9.046;2023-03-23T16:53:10;5.18;;;3.00;;
44704;SDS011;30431;48.520;9.046;2023-03-23T16:55:37;3.92;;;2.67;;
44704;SDS011;30431;48.520;9.046;2023-03-23T16:58:06;7.03;;;2.80;;
44704;SDS011;30431;48.520;9.046;2023-03-23T17:00:36;3.50;;;2.50;;
44704;SDS011;30431;48.520;9.046;2023-03-23T17:03:05;4.45;;;2.40;;
44704;SDS011;30431;48.520;9.046;2023-03-23T17:08:00;4.95;;;2.92;;
44704;SDS011;30431;48.520;9.046;2023-03-23T17:10:28;4.80;;;2.72;;
44704;SDS011;30431;48.520;9.046;2023-03-23T17:15:42;6.50;;;2.50;;
44704;SDS011;30431;48.520;9.046;2023-03-23T17:18:17;4.40;;;2.80;;
44704;SDS011;30431;48.520;9.046;2023-03-23T17:20:47;7.18;;;2.70;;
44704;SDS011;30431;48.520;9.046;2023-03-23T17:23:14;6.10;;;3.00;;
44704;SDS011;30431;48.520;9.046;2023-03-23T17:25:44;4.82;;;2.88;;
44704;SDS011;30431;48.520;9.046;2023-03-23T17:28:12;7.07;;;3.00;;
44704;SDS011;30431;48.520;9.046;2023-03-23T17:30:42;5.00;;;2.95;;
44704;SDS011;30431;48.520;9.046;2023-03-23T17:33:10;3.63;;;2.70;;
44704;SDS011;30431;48.520;9.046;2023-03-23T17:38:07;5.88;;;2.72;;
44704;SDS011;30431;48.520;9.046;2023-03-23T17:40:34;5.90;;;3.78;;
44704;SDS011;30431;48.520;9.046;2023-03-23T17:43:01;4.63;;;3.05;;
44704;SDS011;30431;48.520;9.046;2023-03-23T17:45:30;6.85;;;3.40;;
44704;SDS011;30431;48.520;9.046;2023-03-23T17:47:57;4.63;;;2.90;;
44704;SDS011;30431;48.520;9.046;2023-03-23T17:50:24;5.82;;;3.22;;
44704;SDS011;30431;48.520;9.046;2023-03-23T17:52:52;6.75;;;2.80;;
44704;SDS011;30431;48.520;9.046;2023-03-23T17:55:19;5.65;;;2.83;;
44704;SDS011;30431;48.520;9.046;2023-03-23T17:57:47;3.92;;;2.70;;
44704;SDS011;30431;48.520;9.046;2023-03-23T18:00:17;5.68;;;2.80;;